Time;durP1;ratioP1;P1;durP2;ratioP2;P2;SDS_P1;SDS_P2;PMS_P1;PMS_P2;Temp;Humidity;BMP_temperature;BMP_pressure;BME280_temperature;BME280_humidity;BME280_pressure;Samples;Min_cycle;Max_cycle;Signal;HPM_P1;HPM_P2
2021/03/25 00:00:14;;;;;;;104.82;39.08;;;2.60;99.90;;;;;;5066393;28;20045;-71
2021/03/25 00:02:41;;;;;;;120.57;44.25;;;2.60;99.90;;;;;;5046912;28;20137;-71
2021/03/25 00:05:11;;;;;;;102.93;41.67;;;2.70;99.90;;;;;;5023506;28;20102;-69
2021/03/25 00:07:38;;;;;;;107.15;40.00;;;2.60;99.90;;;;;;5060103;28;20056;-70
2021/03/25 00:10:28;;;;;;;113.20;40.30;;;2.70;99.90;;;;;;5062940;28;20048;-71
2021/03/25 00:12:54;;;;;;;124.80;43.50;;;2.80;99.90;;;;;;5046770;28;20058;-70
2021/03/25 00:15:21;;;;;;;126.22;43.55;;;2.60;99.90;;;;;;5064889;28;20074;-71
2021/03/25 00:17:47;;;;;;;118.43;40.88;;;2.60;99.90;;;;;;5047572;28;20143;-71
2021/03/25 00:20:15;;;;;;;99.05;39.47;;;2.50;99.90;;;;;;5064742;28;20067;-71
2021/03/25 00:22:42;;;;;;;100.60;38.72;;;2.40;99.90;;;;;;5062873;28;20059;-70
2021/03/25 00:25:12;;;;;;;118.32;41.58;;;2.30;99.90;;;;;;5030454;28;20045;-70
2021/03/25 00:27:38;;;;;;;113.45;39.78;;;2.30;99.90;;;;;;5066362;28;20048;-70
2021/03/25 00:30:06;;;;;;;116.80;41.17;;;2.30;99.90;;;;;;5027681;28;20059;-70
2021/03/25 00:32:33;;;;;;;123.45;40.22;;;2.30;99.90;;;;;;5046978;28;20431;-71
2021/03/25 00:34:59;;;;;;;109.75;40.25;;;2.30;99.90;;;;;;5053798;28;20048;-71
2021/03/25 00:37:26;;;;;;;105.93;39.33;;;2.30;99.90;;;;;;5062558;28;20157;-70
2021/03/25 00:39:53;;;;;;;110.50;38.22;;;2.20;99.90;;;;;;5047580;28;20044;-71
2021/03/25 00:42:19;;;;;;;114.20;39.65;;;2.40;99.90;;;;;;5043984;28;20329;-72
2021/03/25 00:44:47;;;;;;;120.03;38.40;;;2.30;99.90;;;;;;5043069;28;20057;-71
2021/03/25 00:47:14;;;;;;;97.95;37.45;;;2.30;99.90;;;;;;5056482;28;20140;-70
2021/03/25 00:49:40;;;;;;;113.82;39.50;;;2.20;99.90;;;;;;5065160;28;20080;-70
2021/03/25 00:52:08;;;;;;;121.38;41.60;;;2.10;99.90;;;;;;5047211;28;20045;-71
2021/03/25 00:54:36;;;;;;;123.20;40.10;;;2.10;99.90;;;;;;5047833;28;20048;-71
2021/03/25 00:57:03;;;;;;;129.20;44.38;;;2.10;99.90;;;;;;5047577;28;20727;-72
2021/03/25 00:59:30;;;;;;;104.15;37.72;;;2.20;99.90;;;;;;5050278;28;20049;-71
2021/03/25 01:01:56;;;;;;;113.72;38.97;;;2.10;99.90;;;;;;5054384;28;20128;-70
2021/03/25 01:04:22;;;;;;;99.38;38.90;;;2.10;99.90;;;;;;5042379;28;20060;-71
2021/03/25 01:06:49;;;;;;;95.22;37.97;;;2.10;99.90;;;;;;5057394;28;20049;-70
2021/03/25 01:09:22;;;;;;;111.82;37.28;;;2.10;99.90;;;;;;5063509;28;20057;-71
2021/03/25 01:11:50;;;;;;;121.35;39.38;;;2.10;99.90;;;;;;5064097;28;20055;-71
2021/03/25 01:14:20;;;;;;;111.82;37.33;;;2.10;99.90;;;;;;5046688;28;20045;-71
2021/03/25 01:16:48;;;;;;;117.65;38.63;;;2.10;99.90;;;;;;5062733;28;20048;-70
2021/03/25 01:19:19;;;;;;;119.63;38.13;;;2.00;99.90;;;;;;5062598;28;20053;-71
2021/03/25 01:21:47;;;;;;;116.32;39.10;;;1.90;99.90;;;;;;5062854;28;20127;-70
2021/03/25 01:24:13;;;;;;;103.00;35.55;;;1.80;99.90;;;;;;5046422;28;20044;-70
2021/03/25 01:26:40;;;;;;;121.95;38.45;;;1.80;99.90;;;;;;5063409;28;20044;-71
2021/03/25 01:29:11;;;;;;;106.88;38.72;;;2.00;99.90;;;;;;5071268;28;20131;-72
2021/03/25 01:31:37;;;;;;;99.50;36.13;;;2.00;99.90;;;;;;5063847;28;20346;-70
2021/03/25 01:34:08;;;;;;;93.05;35.30;;;1.90;99.90;;;;;;5060557;28;20095;-71
2021/03/25 01:36:34;;;;;;;105.07;35.42;;;1.80;99.90;;;;;;5072728;28;20509;-71
2021/03/25 01:39:01;;;;;;;115.45;39.78;;;1.80;99.90;;;;;;5063608;28;20140;-72
2021/03/25 01:41:32;;;;;;;110.25;36.90;;;2.00;99.90;;;;;;5046504;28;20068;-71
2021/03/25 01:44:01;;;;;;;130.05;39.72;;;2.00;99.90;;;;;;5064435;28;20083;-69
2021/03/25 01:46:39;;;;;;;118.32;37.58;;;2.10;99.90;;;;;;5054236;28;20602;-70
2021/03/25 01:49:10;;;;;;;121.82;37.60;;;2.10;99.90;;;;;;5062452;28;20052;-71
2021/03/25 01:51:57;;;;;;;111.13;35.38;;;2.00;99.90;;;;;;5027375;28;20059;-71
2021/03/25 01:55:02;;;;;;;102.78;35.88;;;1.80;99.90;;;;;;5060112;28;20049;-71
2021/03/25 01:58:04;;;;;;;96.93;34.65;;;1.70;99.90;;;;;;5038257;28;20075;-70
2021/03/25 02:00:48;;;;;;;102.70;35.17;;;1.60;99.90;;;;;;5053815;28;20056;-70
2021/03/25 02:03:38;;;;;;;97.35;33.60;;;1.60;99.90;;;;;;5046042;28;20040;-71
2021/03/25 02:06:17;;;;;;;98.43;34.42;;;1.50;99.90;;;;;;5055479;28;20068;-70
2021/03/25 02:08:54;;;;;;;100.25;34.70;;;1.50;99.90;;;;;;5063127;28;20060;-71
2021/03/25 02:11:44;;;;;;;101.25;35.60;;;1.50;99.90;;;;;;5061370;28;20041;-71
2021/03/25 02:14:49;;;;;;;99.97;33.83;;;1.30;99.90;;;;;;5059723;28;20048;-71
2021/03/25 02:17:26;;;;;;;100.13;34.15;;;1.30;99.90;;;;;;5064755;28;20052;-72
2021/03/25 02:20:53;;;;;;;91.87;33.40;;;1.30;99.90;;;;;;5062902;28;20136;-71
2021/03/25 02:23:41;;;;;;;87.85;31.63;;;1.30;99.90;;;;;;5054702;28;20283;-71
2021/03/25 02:26:30;;;;;;;105.07;33.72;;;1.20;99.90;;;;;;5041097;28;20041;-70
2021/03/25 02:29:17;;;;;;;96.93;33.72;;;1.10;99.90;;;;;;5055872;28;20048;-70
2021/03/25 02:31:49;;;;;;;82.70;32.15;;;1.10;99.90;;;;;;5055545;28;20098;-72
2021/03/25 02:34:21;;;;;;;99.35;32.25;;;1.10;99.90;;;;;;5028157;28;20057;-71
2021/03/25 02:37:18;;;;;;;96.80;33.28;;;1.10;99.90;;;;;;5037818;28;20048;-71
2021/03/25 02:40:10;;;;;;;99.55;32.95;;;1.10;99.90;;;;;;5045673;28;20063;-71
2021/03/25 02:42:49;;;;;;;89.70;31.42;;;1.10;99.90;;;;;;5025624;28;20072;-70
2021/03/25 02:45:22;;;;;;;100.70;32.53;;;1.20;99.90;;;;;;5044431;28;20431;-70
2021/03/25 02:47:56;;;;;;;119.30;35.58;;;1.40;99.90;;;;;;5045929;28;20059;-71
2021/03/25 02:50:31;;;;;;;101.37;33.20;;;1.50;99.90;;;;;;5048338;28;20128;-69
2021/03/25 02:53:18;;;;;;;116.63;35.33;;;1.50;99.90;;;;;;5022843;28;20049;-70
2021/03/25 02:55:44;;;;;;;103.97;33.67;;;1.50;99.90;;;;;;5056594;28;20105;-70
2021/03/25 02:58:23;;;;;;;105.18;32.70;;;1.30;99.90;;;;;;5050330;28;20591;-71
2021/03/25 03:01:02;;;;;;;110.55;34.08;;;1.40;99.90;;;;;;5048401;28;20040;-71
2021/03/25 03:03:40;;;;;;;125.57;34.60;;;1.30;99.90;;;;;;5082232;28;20211;-71
2021/03/25 03:06:23;;;;;;;104.93;33.78;;;1.30;99.90;;;;;;5040782;28;20048;-71
2021/03/25 03:08:57;;;;;;;113.72;35.05;;;1.20;99.90;;;;;;5066106;28;20048;-71
2021/03/25 03:11:38;;;;;;;100.15;31.98;;;1.20;99.90;;;;;;5066188;28;20763;-71
2021/03/25 03:14:10;;;;;;;96.60;31.92;;;1.20;99.90;;;;;;5049422;28;20088;-71
2021/03/25 03:16:49;;;;;;;108.63;33.38;;;1.20;99.90;;;;;;5066191;28;20094;-71
2021/03/25 03:19:21;;;;;;;106.63;34.38;;;1.10;99.90;;;;;;5066442;28;20118;-72
2021/03/25 03:21:54;;;;;;;105.70;35.88;;;1.30;99.90;;;;;;5047497;28;20059;-71
2021/03/25 03:24:38;;;;;;;106.82;34.08;;;1.20;99.90;;;;;;5057713;28;20273;-71
2021/03/25 03:27:21;;;;;;;93.32;32.55;;;1.10;99.90;;;;;;5045368;28;20166;-71
2021/03/25 03:29:51;;;;;;;103.07;33.65;;;1.00;99.90;;;;;;5046188;28;20525;-70
2021/03/25 03:32:41;;;;;;;117.88;36.67;;;1.00;99.90;;;;;;5046462;28;20051;-72
2021/03/25 03:35:22;;;;;;;99.63;34.00;;;1.00;99.90;;;;;;5036759;28;20080;-72
2021/03/25 03:37:54;;;;;;;97.22;33.42;;;0.90;99.90;;;;;;5044460;28;20474;-70
2021/03/25 03:40:26;;;;;;;92.72;32.40;;;0.90;99.90;;;;;;5060340;28;20053;-70
2021/03/25 03:43:04;;;;;;;102.25;33.85;;;0.90;99.90;;;;;;5045730;28;20060;-71
2021/03/25 03:45:42;;;;;;;119.25;35.30;;;1.00;99.90;;;;;;5030366;28;20041;-71
2021/03/25 03:48:41;;;;;;;98.60;33.45;;;1.00;99.90;;;;;;5031302;28;20064;-71
2021/03/25 03:51:13;;;;;;;117.20;32.72;;;1.10;99.90;;;;;;5030384;28;20044;-71
2021/03/25 03:53:40;;;;;;;103.50;31.42;;;1.10;99.90;;;;;;5065514;28;20045;-71
2021/03/25 03:56:31;;;;;;;104.68;32.05;;;1.10;99.90;;;;;;5064348;28;20144;-71
2021/03/25 03:59:08;;;;;;;99.55;34.60;;;1.10;99.90;;;;;;5062196;28;20056;-71
2021/03/25 04:01:40;;;;;;;114.18;33.80;;;1.00;99.90;;;;;;5039984;28;20048;-71
2021/03/25 04:04:23;;;;;;;93.70;32.42;;;0.90;99.90;;;;;;5060784;28;20049;-71
2021/03/25 04:07:27;;;;;;;117.65;36.08;;;1.00;99.90;;;;;;5062498;28;20533;-72
2021/03/25 04:10:19;;;;;;;107.40;32.95;;;1.10;99.90;;;;;;5064746;28;20041;-72
2021/03/25 04:12:58;;;;;;;122.85;36.88;;;1.10;99.90;;;;;;5048302;28;20052;-71
2021/03/25 04:15:28;;;;;;;121.13;35.80;;;1.10;99.90;;;;;;5054152;28;20072;-74
2021/03/25 04:18:26;;;;;;;116.05;35.67;;;1.00;99.90;;;;;;5050775;28;20048;-71
2021/03/25 04:21:18;;;;;;;136.98;37.30;;;0.90;99.90;;;;;;5051630;28;20064;-71
2021/03/25 04:23:46;;;;;;;135.77;38.05;;;1.00;99.90;;;;;;5041301;28;20111;-72
2021/03/25 04:26:28;;;;;;;134.38;41.20;;;1.10;99.90;;;;;;5044868;28;20441;-71
2021/03/25 04:29:05;;;;;;;121.78;36.88;;;1.10;99.90;;;;;;5048559;28;20410;-71
2021/03/25 04:31:33;;;;;;;134.50;38.55;;;1.00;99.90;;;;;;5047911;28;20495;-71
2021/03/25 04:34:01;;;;;;;107.10;33.88;;;1.00;99.90;;;;;;5044174;28;20045;-71
2021/03/25 04:36:32;;;;;;;106.28;33.25;;;1.00;99.90;;;;;;5046136;28;20102;-70
2021/03/25 04:39:01;;;;;;;118.57;35.85;;;1.00;99.90;;;;;;5064268;28;20063;-72
2021/03/25 04:41:30;;;;;;;140.05;38.85;;;1.20;99.90;;;;;;5047155;28;20530;-70
2021/03/25 04:43:59;;;;;;;131.30;37.25;;;1.30;99.90;;;;;;5064165;28;20052;-71
2021/03/25 04:46:48;;;;;;;128.98;37.15;;;1.30;99.90;;;;;;5064769;28;20124;-71
2021/03/25 04:49:31;;;;;;;107.65;34.05;;;1.30;99.90;;;;;;5047229;28;20052;-70
2021/03/25 04:52:03;;;;;;;117.53;35.40;;;1.20;99.90;;;;;;5064409;28;20444;-73
2021/03/25 04:54:36;;;;;;;104.00;34.65;;;1.20;99.90;;;;;;5060599;28;20113;-73
2021/03/25 04:57:27;;;;;;;99.35;32.10;;;1.10;99.90;;;;;;5053121;28;20069;-73
2021/03/25 04:59:55;;;;;;;116.80;34.58;;;1.10;99.90;;;;;;5043010;28;20053;-74
2021/03/25 05:02:23;;;;;;;110.60;35.53;;;1.10;99.90;;;;;;5043556;28;20255;-72
2021/03/25 05:04:54;;;;;;;99.55;34.15;;;1.10;99.90;;;;;;5055243;28;20061;-71
2021/03/25 05:07:29;;;;;;;103.63;33.15;;;1.10;99.90;;;;;;5061492;28;20135;-73
2021/03/25 05:09:57;;;;;;;117.30;36.45;;;1.20;99.90;;;;;;5063908;28;20080;-70
2021/03/25 05:12:24;;;;;;;120.32;34.70;;;1.10;99.90;;;;;;5063975;28;20068;-72
2021/03/25 05:15:03;;;;;;;118.25;36.05;;;1.10;99.90;;;;;;5065420;28;20045;-71
2021/03/25 05:17:43;;;;;;;124.25;37.58;;;1.20;99.90;;;;;;5062057;28;20894;-72
2021/03/25 05:20:20;;;;;;;143.85;38.45;;;1.20;99.90;;;;;;5061892;28;20056;-71
2021/03/25 05:23:01;;;;;;;124.13;37.60;;;1.20;99.90;;;;;;5058860;28;20056;-69
2021/03/25 05:25:49;;;;;;;108.90;34.35;;;1.10;99.90;;;;;;5058165;28;20139;-71
2021/03/25 05:28:44;;;;;;;121.40;39.03;;;1.20;99.90;;;;;;5043713;28;20090;-71
2021/03/25 05:31:12;;;;;;;143.27;39.47;;;1.40;99.90;;;;;;5030564;28;20390;-71
2021/03/25 05:33:40;;;;;;;125.57;38.00;;;1.40;99.90;;;;;;5030764;28;20076;-70
2021/03/25 05:36:10;;;;;;;107.40;33.70;;;1.50;99.90;;;;;;5050787;28;20110;-70
2021/03/25 05:38:38;;;;;;;96.05;31.30;;;1.40;99.90;;;;;;5062466;28;20066;-72
2021/03/25 05:41:23;;;;;;;91.95;30.65;;;1.50;99.90;;;;;;5046220;28;20064;-71
2021/03/25 05:44:06;;;;;;;;;;;1.40;99.90;;;;;;5048032;28;20131;-71
2021/03/25 05:46:45;;;;;;;110.45;34.88;;;1.50;99.90;;;;;;5045837;28;19928;-71
2021/03/25 05:49:28;;;;;;;106.32;35.22;;;1.60;99.90;;;;;;5062716;28;20056;-70
2021/03/25 05:52:24;;;;;;;88.97;32.70;;;1.60;99.90;;;;;;5063527;28;20522;-70
2021/03/25 05:55:09;;;;;;;115.00;34.50;;;1.70;99.90;;;;;;5046753;28;20056;-71
2021/03/25 05:57:41;;;;;;;113.30;35.47;;;1.70;99.90;;;;;;5063070;28;20445;-71
2021/03/25 06:00:14;;;;;;;100.60;32.95;;;1.80;99.90;;;;;;5063680;28;20072;-71
2021/03/25 06:02:43;;;;;;;90.43;32.22;;;1.80;99.90;;;;;;5061251;28;20114;-71
2021/03/25 06:05:12;;;;;;;97.32;34.70;;;1.90;99.90;;;;;;5053316;28;20037;-71
2021/03/25 06:07:54;;;;;;;91.30;33.92;;;2.00;99.90;;;;;;5062744;28;20075;-71
2021/03/25 06:10:49;;;;;;;102.13;33.85;;;2.10;99.90;;;;;;5045955;28;20076;-73
2021/03/25 06:13:44;;;;;;;101.88;34.90;;;2.30;99.90;;;;;;5058892;28;20048;-71
2021/03/25 06:16:18;;;;;;;94.03;34.25;;;2.50;99.90;;;;;;5057417;28;20033;-72
2021/03/25 06:19:14;;;;;;;92.20;35.20;;;2.60;99.90;;;;;;5060398;28;20132;-70
2021/03/25 06:21:52;;;;;;;102.28;38.38;;;2.60;99.90;;;;;;5050971;28;20055;-72
2021/03/25 06:24:34;;;;;;;99.65;36.47;;;2.60;99.90;;;;;;5044649;28;20052;-72
2021/03/25 06:27:13;;;;;;;102.82;35.08;;;2.90;99.90;;;;;;5031283;28;20724;-72
2021/03/25 06:29:52;;;;;;;87.45;34.92;;;3.00;99.90;;;;;;5044942;28;20060;-71
2021/03/25 06:32:53;;;;;;;93.18;36.63;;;3.10;99.90;;;;;;5028817;28;20055;-71
2021/03/25 06:35:36;;;;;;;104.30;38.13;;;3.20;99.90;;;;;;5058385;28;20040;-71
2021/03/25 06:38:05;;;;;;;106.20;40.67;;;3.20;99.90;;;;;;5062937;28;20517;-71
2021/03/25 06:40:41;;;;;;;100.10;38.08;;;3.30;99.90;;;;;;5066105;28;20212;-70
2021/03/25 06:43:28;;;;;;;85.00;36.10;;;3.40;99.90;;;;;;5066979;28;20079;-71
2021/03/25 06:46:05;;;;;;;82.32;33.10;;;3.60;99.90;;;;;;5063489;28;20120;-70
2021/03/25 06:48:37;;;;;;;87.03;34.78;;;3.70;99.90;;;;;;5055180;28;20055;-71
2021/03/25 06:51:34;;;;;;;76.43;35.42;;;3.90;99.90;;;;;;5063736;28;20040;-70
2021/03/25 06:54:33;;;;;;;73.53;32.83;;;4.20;99.90;;;;;;5032099;28;20088;-71
2021/03/25 06:57:01;;;;;;;72.78;31.67;;;4.30;99.90;;;;;;5058512;28;20048;-72
2021/03/25 06:59:35;;;;;;;79.88;33.85;;;4.40;99.90;;;;;;5056862;28;20074;-73
2021/03/25 07:02:33;;;;;;;81.60;36.05;;;4.50;99.90;;;;;;5060778;28;20128;-71
2021/03/25 07:05:01;;;;;;;81.65;35.00;;;4.40;99.90;;;;;;5065462;28;20079;-72
2021/03/25 07:07:35;;;;;;;79.57;36.60;;;4.40;99.90;;;;;;5061793;28;20056;-70
2021/03/25 07:10:03;;;;;;;81.93;34.53;;;4.60;99.90;;;;;;5065294;28;20133;-69
2021/03/25 07:12:34;;;;;;;83.22;35.95;;;4.70;99.90;;;;;;5065752;28;20680;-70
2021/03/25 07:15:01;;;;;;;80.97;35.03;;;4.90;99.90;;;;;;5064873;28;20422;-69
2021/03/25 07:17:33;;;;;;;69.90;33.60;;;5.00;99.90;;;;;;5064894;28;20052;-71
2021/03/25 07:20:11;;;;;;;78.75;34.55;;;5.20;99.90;;;;;;5054047;28;20076;-70
2021/03/25 07:22:37;;;;;;;68.85;33.50;;;5.40;99.90;;;;;;5045578;28;20148;-70
2021/03/25 07:25:23;;;;;;;78.03;37.22;;;5.70;99.90;;;;;;5043141;28;20132;-70
2021/03/25 07:27:50;;;;;;;65.72;33.90;;;5.90;99.90;;;;;;5059832;28;20072;-71
2021/03/25 07:30:49;;;;;;;79.78;37.58;;;6.10;99.90;;;;;;5048165;28;20060;-71
2021/03/25 07:33:19;;;;;;;71.32;35.65;;;6.30;99.90;;;;;;5027441;28;20068;-71
2021/03/25 07:35:50;;;;;;;75.13;34.40;;;6.70;99.90;;;;;;5032466;28;20101;-70
2021/03/25 07:38:26;;;;;;;74.72;35.22;;;6.90;99.90;;;;;;5061743;28;20066;-71
2021/03/25 07:41:14;;;;;;;70.95;36.17;;;7.10;99.90;;;;;;5060758;28;20132;-69
2021/03/25 07:43:59;;;;;;;65.68;36.10;;;7.20;99.90;;;;;;5061300;28;20321;-71
2021/03/25 07:46:28;;;;;;;60.87;34.87;;;7.40;99.90;;;;;;5057562;28;20128;-71
2021/03/25 07:49:21;;;;;;;67.13;36.58;;;7.70;99.90;;;;;;5056906;28;20331;-71
2021/03/25 07:51:52;;;;;;;58.35;36.35;;;7.90;99.90;;;;;;5055602;28;20486;-69
2021/03/25 07:54:28;;;;;;;64.82;35.97;;;8.20;99.90;;;;;;5046054;28;20056;-72
2021/03/25 07:57:19;;;;;;;65.32;36.95;;;8.50;99.90;;;;;;5058575;28;20079;-71
2021/03/25 07:59:51;;;;;;;63.10;36.25;;;8.70;99.90;;;;;;5051322;28;20055;-70
2021/03/25 08:02:36;;;;;;;57.20;35.47;;;9.10;99.90;;;;;;5056158;28;20052;-71
2021/03/25 08:05:21;;;;;;;54.88;35.50;;;9.30;99.90;;;;;;5055812;28;20045;-71
2021/03/25 08:07:50;;;;;;;58.57;36.33;;;9.60;99.90;;;;;;5062151;28;20049;-71
2021/03/25 08:10:30;;;;;;;54.05;35.22;;;9.90;99.90;;;;;;5057964;28;20569;-72
2021/03/25 08:13:23;;;;;;;52.70;33.33;;;10.00;99.90;;;;;;5058891;28;20059;-73
2021/03/25 08:16:03;;;;;;;49.53;32.53;;;10.10;99.90;;;;;;5054171;28;20502;-72
2021/03/25 08:18:38;;;;;;;55.58;34.72;;;10.20;99.90;;;;;;5045193;23;20057;-76
2021/03/25 08:21:20;;;;;;;51.38;34.30;;;10.40;99.90;;;;;;5040571;28;20055;-75
2021/03/25 08:24:20;;;;;;;61.15;36.60;;;10.80;99.90;;;;;;5040985;28;20041;-75
2021/03/25 08:27:01;;;;;;;60.25;36.22;;;10.90;99.90;;;;;;5045942;28;20409;-76
2021/03/25 08:29:46;;;;;;;51.83;36.05;;;11.20;99.90;;;;;;5044852;28;20134;-73
2021/03/25 08:32:12;;;;;;;57.15;35.95;;;11.40;99.90;;;;;;5043496;28;20077;-75
2021/03/25 08:34:52;;;;;;;52.53;35.05;;;11.50;99.90;;;;;;5042410;28;20496;-76
2021/03/25 08:37:33;;;;;;;56.63;37.65;;;11.60;99.90;;;;;;5033459;28;20080;-74
2021/03/25 08:40:02;;;;;;;52.70;35.58;;;11.70;99.90;;;;;;5036710;28;20072;-74
2021/03/25 08:42:40;;;;;;;50.72;35.33;;;11.80;99.90;;;;;;5024419;28;20053;-74
2021/03/25 08:45:27;;;;;;;55.65;37.63;;;11.90;99.90;;;;;;5038386;28;20052;-74
2021/03/25 08:48:10;;;;;;;57.72;35.65;;;12.00;99.90;;;;;;5042058;28;20045;-74
2021/03/25 08:50:55;;;;;;;54.80;38.65;;;12.00;99.90;;;;;;5029614;28;20041;-74
2021/03/25 08:53:43;;;;;;;59.88;40.63;;;12.20;99.90;;;;;;5044789;28;20092;-74
2021/03/25 08:56:38;;;;;;;57.05;39.53;;;12.40;99.90;;;;;;5045177;28;20044;-74
2021/03/25 08:59:13;;;;;;;55.40;40.15;;;12.60;99.90;;;;;;5040361;28;20155;-71
2021/03/25 09:02:02;;;;;;;61.55;40.95;;;12.70;99.90;;;;;;5036528;28;20059;-70
2021/03/25 09:04:35;;;;;;;58.15;41.10;;;12.80;99.90;;;;;;5040934;28;20499;-72
2021/03/25 09:07:04;;;;;;;54.13;39.08;;;13.10;99.90;;;;;;5035065;28;20048;-71
2021/03/25 09:09:38;;;;;;;51.78;39.30;;;13.20;99.90;;;;;;5023993;28;20057;-71
2021/03/25 09:12:13;;;;;;;52.90;39.25;;;13.40;99.90;;;;;;5042566;28;20128;-71
2021/03/25 09:14:40;;;;;;;;;;;13.50;99.90;;;;;;5035731;28;20049;-73
2021/03/25 09:17:12;;;;;;;51.75;37.47;;;13.70;99.90;;;;;;5037339;28;19924;-71
2021/03/25 09:19:53;;;;;;;54.47;38.50;;;13.80;99.90;;;;;;5041890;28;20049;-73
2021/03/25 09:22:37;;;;;;;53.42;38.28;;;13.70;99.90;;;;;;5029494;28;20187;-72
2021/03/25 09:25:36;;;;;;;59.42;38.80;;;14.00;99.90;;;;;;5025025;28;20053;-72
2021/03/25 09:28:10;;;;;;;57.08;39.95;;;14.30;99.90;;;;;;5040900;28;20152;-71
2021/03/25 09:31:08;;;;;;;53.40;39.13;;;14.50;99.90;;;;;;5031489;28;20073;-73
2021/03/25 09:33:48;;;;;;;52.88;39.25;;;14.50;99.90;;;;;;5036511;28;20652;-73
2021/03/25 09:36:18;;;;;;;51.65;38.28;;;14.60;99.90;;;;;;5034328;28;20455;-72
2021/03/25 09:38:48;;;;;;;53.35;38.67;;;14.60;99.90;;;;;;5039217;28;20060;-73
2021/03/25 09:41:37;;;;;;;52.47;38.85;;;14.60;99.90;;;;;;5025876;28;20465;-73
2021/03/25 09:44:25;;;;;;;57.45;40.05;;;14.70;99.90;;;;;;5038603;28;20061;-71
2021/03/25 09:47:10;;;;;;;59.67;39.72;;;14.40;99.90;;;;;;5042231;28;20055;-72
2021/03/25 09:49:44;;;;;;;58.15;39.75;;;14.30;99.90;;;;;;5043007;28;20057;-72
2021/03/25 09:52:18;;;;;;;62.10;40.25;;;14.20;99.90;;;;;;5037190;28;20084;-72
2021/03/25 09:54:52;;;;;;;62.75;42.33;;;14.10;99.90;;;;;;5008839;28;20087;-72
2021/03/25 09:57:19;;;;;;;66.10;42.93;;;14.00;99.90;;;;;;5030262;28;20048;-72
2021/03/25 09:59:53;;;;;;;62.30;41.40;;;13.90;99.90;;;;;;5028440;28;20298;-71
2021/03/25 10:02:37;;;;;;;66.78;41.97;;;13.90;99.90;;;;;;5039411;28;20171;-71
2021/03/25 10:05:26;;;;;;;64.07;40.22;;;14.10;99.90;;;;;;5031872;28;20053;-73
2021/03/25 10:08:00;;;;;;;58.13;39.97;;;14.30;99.90;;;;;;5043289;28;20532;-74
2021/03/25 10:10:58;;;;;;;65.50;41.30;;;14.30;99.90;;;;;;5047453;28;20067;-73
2021/03/25 10:13:44;;;;;;;57.72;41.17;;;14.30;99.90;;;;;;5030964;28;20056;-73
2021/03/25 10:16:30;;;;;;;59.10;39.85;;;14.10;99.90;;;;;;5034916;28;20140;-73
2021/03/25 10:18:59;;;;;;;66.55;40.42;;;13.90;99.90;;;;;;5045014;28;20059;-74
2021/03/25 10:21:44;;;;;;;55.50;40.80;;;13.80;99.90;;;;;;5037453;28;20057;-73
2021/03/25 10:24:43;;;;;;;63.75;39.17;;;13.90;99.90;;;;;;5046299;28;20071;-73
2021/03/25 10:27:22;;;;;;;55.17;41.17;;;14.00;99.90;;;;;;5043232;28;20233;-73
2021/03/25 10:29:49;;;;;;;60.53;42.30;;;13.90;99.90;;;;;;5023532;28;20041;-72
2021/03/25 10:32:32;;;;;;;57.00;40.85;;;13.80;99.90;;;;;;5040671;28;20049;-70
2021/03/25 10:35:06;;;;;;;64.13;42.22;;;13.90;99.90;;;;;;5045319;28;20053;-72
2021/03/25 10:37:37;;;;;;;66.10;42.88;;;14.00;99.90;;;;;;5043195;28;20888;-73
2021/03/25 10:40:18;;;;;;;60.47;41.25;;;14.00;99.90;;;;;;5037323;28;20495;-74
2021/03/25 10:42:58;;;;;;;65.35;41.00;;;14.20;99.90;;;;;;5040706;28;20064;-74
2021/03/25 10:45:27;;;;;;;61.05;41.78;;;14.10;99.90;;;;;;5018007;28;20049;-73
2021/03/25 10:48:35;;;;;;;66.05;40.38;;;13.80;99.90;;;;;;5030861;28;20053;-70
2021/03/25 10:51:06;;;;;;;69.07;41.40;;;13.70;99.90;;;;;;5043660;28;20052;-72
2021/03/25 10:53:43;;;;;;;66.75;40.38;;;13.40;99.90;;;;;;5040510;28;20076;-72
2021/03/25 10:56:19;;;;;;;61.90;41.10;;;13.40;99.90;;;;;;5063384;28;20036;-71
2021/03/25 10:59:00;;;;;;;65.43;42.20;;;13.40;99.90;;;;;;5045293;28;20610;-72
2021/03/25 11:01:32;;;;;;;65.07;41.90;;;13.50;99.90;;;;;;5019986;28;20052;-71
2021/03/25 11:04:13;;;;;;;65.28;41.83;;;13.50;99.90;;;;;;5034577;28;20057;-74
2021/03/25 11:06:40;;;;;;;55.20;39.42;;;13.40;99.90;;;;;;5038627;28;20045;-75
2021/03/25 11:09:16;;;;;;;67.65;43.17;;;13.40;99.90;;;;;;5043599;28;20135;-75
2021/03/25 11:11:43;;;;;;;64.15;41.10;;;13.40;99.90;;;;;;5033539;28;20084;-75
2021/03/25 11:14:31;;;;;;;62.30;40.33;;;13.40;99.90;;;;;;5055666;28;20041;-73
2021/03/25 11:17:22;;;;;;;63.85;41.17;;;13.40;99.90;;;;;;5006890;28;20526;-74
2021/03/25 11:19:55;;;;;;;61.47;41.22;;;13.40;99.90;;;;;;5030006;28;20041;-74
2021/03/25 11:22:22;;;;;;;70.97;45.50;;;13.50;99.90;;;;;;5040979;28;20053;-75
2021/03/25 11:24:51;;;;;;;72.78;45.28;;;13.60;99.90;;;;;;5036142;28;20079;-75
2021/03/25 11:27:21;;;;;;;66.40;42.75;;;13.70;99.90;;;;;;5026369;28;20574;-75
2021/03/25 11:30:01;;;;;;;64.60;41.78;;;13.60;99.90;;;;;;5028766;28;20081;-75
2021/03/25 11:32:36;;;;;;;64.70;41.10;;;13.60;99.90;;;;;;5041113;28;20221;-73
2021/03/25 11:35:30;;;;;;;69.93;42.88;;;13.60;99.90;;;;;;5037537;28;20133;-75
2021/03/25 11:38:14;;;;;;;67.93;41.00;;;13.70;99.90;;;;;;5040389;28;20041;-75
2021/03/25 11:40:43;;;;;;;66.80;41.58;;;13.70;99.90;;;;;;5025229;28;20144;-75
2021/03/25 11:43:21;;;;;;;64.32;41.15;;;13.60;99.90;;;;;;5049870;28;20052;-74
2021/03/25 11:45:54;;;;;;;69.50;45.20;;;13.80;99.90;;;;;;5033949;28;20397;-74
2021/03/25 11:48:32;;;;;;;61.08;42.55;;;14.00;99.90;;;;;;5042975;28;20068;-74
2021/03/25 11:51:18;;;;;;;63.97;42.33;;;14.20;99.90;;;;;;5040310;28;20076;-73
2021/03/25 11:53:46;;;;;;;71.10;45.13;;;14.20;99.90;;;;;;5015865;28;20060;-73
2021/03/25 11:56:37;;;;;;;71.45;45.42;;;14.20;99.90;;;;;;5009770;28;20383;-75
2021/03/25 11:59:12;;;;;;;67.20;43.85;;;14.30;99.90;;;;;;5026040;28;20058;-74
2021/03/25 12:01:38;;;;;;;73.15;44.92;;;14.40;99.90;;;;;;5021631;28;20053;-75
2021/03/25 12:04:24;;;;;;;69.20;43.45;;;14.50;99.90;;;;;;5039988;28;20056;-74
2021/03/25 12:07:09;;;;;;;;;;;14.50;99.90;;;;;;5029538;28;20131;-74
2021/03/25 12:09:35;;;;;;;67.72;42.35;;;14.60;99.90;;;;;;5042837;28;19921;-74
2021/03/25 12:12:02;;;;;;;66.63;43.28;;;14.50;99.90;;;;;;5028466;28;20061;-74
2021/03/25 12:14:29;;;;;;;65.40;43.85;;;14.60;99.90;;;;;;5022183;28;20499;-74
2021/03/25 12:17:00;;;;;;;69.47;44.50;;;14.50;99.90;;;;;;5041973;28;20068;-75
2021/03/25 12:19:47;;;;;;;66.28;43.42;;;14.60;99.90;;;;;;5031037;28;20057;-74
2021/03/25 12:22:24;;;;;;;67.82;45.60;;;14.80;99.90;;;;;;5039914;28;20677;-74
2021/03/25 12:24:52;;;;;;;70.43;47.40;;;14.80;99.90;;;;;;5050591;28;20055;-74
2021/03/25 12:27:23;;;;;;;65.40;44.88;;;14.80;99.90;;;;;;5030435;28;20041;-74
2021/03/25 12:29:52;;;;;;;66.78;44.88;;;15.10;99.90;;;;;;5040827;28;20049;-74
2021/03/25 12:32:24;;;;;;;65.50;45.75;;;15.20;99.90;;;;;;5037881;28;20131;-74
2021/03/25 12:35:06;;;;;;;71.28;44.78;;;15.10;99.90;;;;;;5042437;28;20042;-74
2021/03/25 12:37:33;;;;;;;67.47;45.20;;;15.10;99.90;;;;;;5037454;28;20769;-74
2021/03/25 12:39:59;;;;;;;69.13;44.40;;;15.00;99.90;;;;;;5036640;28;20080;-75
2021/03/25 12:42:25;;;;;;;71.50;46.58;;;15.00;99.90;;;;;;5011919;28;20392;-75
2021/03/25 12:44:56;;;;;;;65.43;43.22;;;14.90;99.90;;;;;;5038459;28;20140;-75
2021/03/25 12:47:22;;;;;;;73.47;47.17;;;14.90;99.90;;;;;;5035302;28;20122;-75
2021/03/25 12:49:57;;;;;;;77.68;46.20;;;14.90;99.90;;;;;;5036388;28;20531;-74
2021/03/25 12:52:24;;;;;;;67.32;43.38;;;14.80;99.90;;;;;;5036186;28;20049;-75
2021/03/25 12:54:50;;;;;;;69.63;46.50;;;14.80;99.90;;;;;;5043169;28;20049;-74
2021/03/25 12:57:20;;;;;;;75.00;45.83;;;14.70;99.90;;;;;;5024791;28;20041;-74
2021/03/25 12:59:47;;;;;;;72.13;48.72;;;14.50;99.90;;;;;;5043644;28;20045;-75
2021/03/25 13:02:13;;;;;;;68.82;45.15;;;14.40;99.90;;;;;;5026503;28;20044;-74
2021/03/25 13:04:40;;;;;;;65.38;45.05;;;14.20;99.90;;;;;;5037120;28;20064;-74
2021/03/25 13:07:07;;;;;;;66.90;43.67;;;14.20;99.90;;;;;;5035115;28;20103;-74
2021/03/25 13:09:34;;;;;;;74.00;44.70;;;14.20;99.90;;;;;;5042307;28;20131;-74
2021/03/25 13:12:11;;;;;;;60.60;44.08;;;14.20;99.90;;;;;;5039172;28;20037;-74
2021/03/25 13:14:38;;;;;;;72.15;44.30;;;14.30;99.90;;;;;;5039267;28;20045;-74
2021/03/25 13:17:04;;;;;;;72.68;45.08;;;14.30;99.90;;;;;;5036694;28;20048;-73
2021/03/25 13:19:50;;;;;;;71.53;45.35;;;14.20;99.90;;;;;;5042643;28;20037;-73